Time;durP1;ratioP1;P1;durP2;ratioP2;P2;SDS_P1;SDS_P2;PMS_P1;PMS_P2;Temp;Humidity;BMP_temperature;BMP_pressure;BME280_temperature;BME280_humidity;BME280_pressure;Samples;Min_cycle;Max_cycle;Signal;HPM_P1;HPM_P2
2023/10/31 00:00:00;;;;;;;36.10;15.38;;;;;;;;;;5125592;27;20046;-80
2023/10/31 00:02:26;;;;;;;26.13;14.40;;;;;;;;;;5116075;27;20042;-80
2023/10/31 00:04:52;;;;;;;32.88;14.40;;;;;;;;;;5117275;27;20039;-81
2023/10/31 00:07:18;;;;;;;;;;;;;;;;;;5100092;27;20395;-81
2023/10/31 00:09:44;;;;;;;31.75;15.15;;;;;;;;;;5132432;27;20030;-80
2023/10/31 00:12:10;;;;;;;;;;;;;;;;;;5133288;27;20055;-81
2023/10/31 00:14:36;;;;;;;30.00;15.02;;;;;;;;;;5117659;27;19956;-80
2023/10/31 00:17:02;;;;;;;;;;;;;;;;;;5117920;27;20043;-83
2023/10/31 00:19:28;;;;;;;30.85;15.35;;;;;;;;;;5117042;27;19926;-80
2023/10/31 00:21:54;;;;;;;;;;;;;;;;;;5104661;27;20051;-81
2023/10/31 00:24:20;;;;;;;30.30;15.95;;;;;;;;;;5099414;27;19919;-81
2023/10/31 00:26:47;;;;;;;30.77;16.10;;;;;;;;;;5116881;27;20051;-82
2023/10/31 00:29:13;;;;;;;32.30;16.55;;;;;;;;;;5116793;27;20047;-80
2023/10/31 00:31:41;;;;;;;36.47;16.50;;;;;;;;;;5117312;27;20050;-80
2023/10/31 00:34:08;;;;;;;36.20;17.25;;;;;;;;;;5100811;27;20118;-83
2023/10/31 00:36:34;;;;;;;33.42;16.05;;;;;;;;;;5120827;27;20046;-80
2023/10/31 00:39:00;;;;;;;;;;;;;;;;;;5100060;27;20051;-81
2023/10/31 00:41:26;;;;;;;33.42;16.15;;;;;;;;;;5115747;27;19919;-81
2023/10/31 00:43:52;;;;;;;;;;;;;;;;;;5133773;27;20496;-79
2023/10/31 00:46:18;;;;;;;35.58;16.23;;;;;;;;;;5116358;27;20009;-80
2023/10/31 00:48:44;;;;;;;;;;;;;;;;;;5134427;27;20043;-80
2023/10/31 00:51:10;;;;;;;36.55;16.15;;;;;;;;;;5116599;27;19926;-83
2023/10/31 00:53:36;;;;;;;;;;;;;;;;;;5133379;27;20047;-80
2023/10/31 00:56:02;;;;;;;39.63;17.65;;;;;;;;;;5116310;27;19925;-81
2023/10/31 00:58:28;;;;;;;42.35;17.42;;;;;;;;;;5107574;27;20054;-81
2023/10/31 01:00:54;;;;;;;43.60;17.90;;;;;;;;;;5103344;27;20050;-81
2023/10/31 01:03:20;;;;;;;;;;;;;;;;;;5119974;27;20050;-80
2023/10/31 01:05:46;;;;;;;45.38;20.17;;;;;;;;;;5136667;27;19987;-81
2023/10/31 01:08:12;;;;;;;;;;;;;;;;;;5118566;27;20497;-84
2023/10/31 01:10:38;;;;;;;43.10;18.75;;;;;;;;;;5136013;27;20401;-80
2023/10/31 01:13:04;;;;;;;46.38;19.88;;;;;;;;;;5136134;27;20369;-80
2023/10/31 01:15:30;;;;;;;;;;;;;;;;;;5119879;27;20091;-80
2023/10/31 01:17:56;;;;;;;44.83;20.48;;;;;;;;;;5136790;27;20356;-80
2023/10/31 01:20:22;;;;;;;;;;;;;;;;;;5114058;27;20043;-80
2023/10/31 01:22:48;;;;;;;51.05;19.58;;;;;;;;;;5115879;27;19919;-80
2023/10/31 01:25:14;;;;;;;;;;;;;;;;;;5113641;27;20411;-80
2023/10/31 01:27:41;;;;;;;43.45;19.80;;;;;;;;;;5131957;27;20009;-82
2023/10/31 01:30:08;;;;;;;44.80;20.75;;;;;;;;;;5098944;27;20051;-80
2023/10/31 01:32:34;;;;;;;44.95;20.65;;;;;;;;;;5115374;27;20046;-81
2023/10/31 01:35:00;;;;;;;;;;;;;;;;;;5099493;27;20043;-80
2023/10/31 01:37:26;;;;;;;43.13;19.20;;;;;;;;;;5103633;27;20006;-80
2023/10/31 01:39:52;;;;;;;48.38;20.05;;;;;;;;;;5135730;27;20069;-80
2023/10/31 01:42:18;;;;;;;;;;;;;;;;;;5135112;27;20550;-85
2023/10/31 01:44:44;;;;;;;42.95;18.73;;;;;;;;;;5115035;27;20040;-80
2023/10/31 01:47:10;;;;;;;45.17;18.75;;;;;;;;;;5098909;27;20043;-80
2023/10/31 01:49:36;;;;;;;;;;;;;;;;;;5081892;27;20061;-80
2023/10/31 01:52:04;;;;;;;40.92;17.92;;;;;;;;;;5114995;27;19920;-80
2023/10/31 01:54:30;;;;;;;17.83;7.55;;;;;;;;;;5124544;27;20089;-80
2023/10/31 01:56:57;;;;;;;;;;;;;;;;;;5136189;27;20045;-80
2023/10/31 01:59:24;;;;;;;3.47;2.13;;;;;;;;;;5135564;27;19918;-81
2023/10/31 02:01:50;;;;;;;1.63;1.30;;;;;;;;;;5118994;27;20073;-80
2023/10/31 02:04:16;;;;;;;0.98;0.80;;;;;;;;;;5118278;27;20117;-80
2023/10/31 02:06:42;;;;;;;;;;;;;;;;;;5116150;27;20043;-80
2023/10/31 02:09:08;;;;;;;0.75;0.65;;;;;;;;;;5114992;27;19919;-80
2023/10/31 02:11:34;;;;;;;2.60;1.27;;;;;;;;;;5114679;27;20051;-81
2023/10/31 02:14:00;;;;;;;;;;;;;;;;;;5098667;27;20050;-81
2023/10/31 02:16:26;;;;;;;1.17;1.08;;;;;;;;;;5097985;27;19938;-81
2023/10/31 02:18:52;;;;;;;;;;;;;;;;;;5098852;27;20047;-80
2023/10/31 02:21:19;;;;;;;1.63;0.80;;;;;;;;;;5115166;27;19929;-80
2023/10/31 02:24:02;;;;;;;1.90;1.20;;;;;;;;;;5097350;28;20042;-81
2023/10/31 02:26:32;;;;;;;3.05;1.10;;;;;;;;;;5114541;27;20050;-83
2023/10/31 02:28:58;;;;;;;0.40;0.40;;;;;;;;;;5097975;28;20047;-81
2023/10/31 02:31:24;;;;;;;0.73;0.52;;;;;;;;;;5115239;27;20046;-80
2023/10/31 02:33:50;;;;;;;0.55;0.50;;;;;;;;;;5107177;27;20050;-80
2023/10/31 02:36:17;;;;;;;1.40;0.50;;;;;;;;;;5115126;27;20086;-81
2023/10/31 02:38:43;;;;;;;3.63;0.63;;;;;;;;;;5080593;28;20043;-80
2023/10/31 02:41:09;;;;;;;;;;;;;;;;;;5114791;28;20057;-80
2023/10/31 02:43:35;;;;;;;3.17;0.70;;;;;;;;;;5114531;28;19923;-81
2023/10/31 02:46:01;;;;;;;3.22;0.82;;;;;;;;;;5107148;27;20047;-80
2023/10/31 02:48:27;;;;;;;;;;;;;;;;;;5135962;27;20046;-80
2023/10/31 02:50:53;;;;;;;2.15;1.05;;;;;;;;;;5135130;27;19925;-80
2023/10/31 02:53:19;;;;;;;;;;;;;;;;;;5105539;27;20039;-81
2023/10/31 02:55:45;;;;;;;5.40;1.15;;;;;;;;;;5109093;27;19937;-80
2023/10/31 02:58:11;;;;;;;;;;;;;;;;;;5120868;27;20568;-81
2023/10/31 03:00:37;;;;;;;1.77;1.10;;;;;;;;;;5139426;27;19970;-80
2023/10/31 03:03:04;;;;;;;3.47;1.13;;;;;;;;;;5139395;27;20054;-81
2023/10/31 03:05:30;;;;;;;5.43;1.20;;;;;;;;;;5122217;27;20043;-81
2023/10/31 03:07:56;;;;;;;2.88;1.33;;;;;;;;;;5121711;27;20046;-80
2023/10/31 03:10:22;;;;;;;3.50;1.50;;;;;;;;;;5101977;27;20043;-81
2023/10/31 03:12:48;;;;;;;;;;;;;;;;;;5101160;27;20156;-81
2023/10/31 03:15:15;;;;;;;2.70;1.30;;;;;;;;;;5119056;27;19959;-80
2023/10/31 03:17:40;;;;;;;;;;;;;;;;;;5102385;27;20130;-80
2023/10/31 03:20:07;;;;;;;7.75;1.70;;;;;;;;;;5117856;27;20328;-81
2023/10/31 03:22:33;;;;;;;8.45;2.08;;;;;;;;;;5101325;27;20047;-80
2023/10/31 03:24:59;;;;;;;4.40;1.77;;;;;;;;;;5101436;27;20043;-80
2023/10/31 03:27:25;;;;;;;8.10;2.40;;;;;;;;;;5135742;27;20051;-83
2023/10/31 03:29:51;;;;;;;10.40;2.63;;;;;;;;;;5084679;27;20043;-80
2023/10/31 03:32:17;;;;;;;8.32;2.63;;;;;;;;;;5101738;27;20135;-80
2023/10/31 03:34:43;;;;;;;;;;;;;;;;;;5101468;27;20496;-80
2023/10/31 03:37:09;;;;;;;3.90;2.10;;;;;;;;;;5100931;27;19967;-80
2023/10/31 03:39:35;;;;;;;6.13;2.80;;;;;;;;;;5084551;27;20043;-80
2023/10/31 03:42:05;;;;;;;11.32;3.17;;;;;;;;;;5084003;27;20813;-81
2023/10/31 03:44:31;;;;;;;8.02;3.20;;;;;;;;;;5117944;27;20054;-81
2023/10/31 03:46:57;;;;;;;7.80;2.92;;;;;;;;;;5100744;27;20047;-80
2023/10/31 03:49:23;;;;;;;8.20;2.75;;;;;;;;;;5110279;27;20042;-82
2023/10/31 03:51:49;;;;;;;;;;;;;;;;;;5121188;27;20039;-81
2023/10/31 03:54:15;;;;;;;6.50;2.30;;;;;;;;;;5127378;27;19930;-81
2023/10/31 03:56:41;;;;;;;;;;;;;;;;;;5101143;27;20054;-83
2023/10/31 03:59:07;;;;;;;10.80;3.25;;;;;;;;;;5100975;27;20006;-80
2023/10/31 04:01:33;;;;;;;;;;;;;;;;;;5101236;27;20038;-81
2023/10/31 04:03:59;;;;;;;7.65;2.60;;;;;;;;;;5116698;27;20014;-80
2023/10/31 04:06:25;;;;;;;11.00;3.03;;;;;;;;;;5100856;27;20074;-80
2023/10/31 04:08:51;;;;;;;;;;;;;;;;;;5118644;27;20054;-80
2023/10/31 04:11:17;;;;;;;13.63;3.90;;;;;;;;;;5142188;27;19919;-81
2023/10/31 04:13:43;;;;;;;10.88;4.60;;;;;;;;;;5120727;27;20445;-83
2023/10/31 04:16:10;;;;;;;11.30;4.30;;;;;;;;;;5120135;27;20433;-81
2023/10/31 04:18:37;;;;;;;9.93;5.03;;;;;;;;;;5100753;27;20086;-80
2023/10/31 04:21:03;;;;;;;10.63;4.00;;;;;;;;;;5117273;27;20145;-81
2023/10/31 04:23:29;;;;;;;;;;;;;;;;;;5100591;27;20502;-81
2023/10/31 04:25:55;;;;;;;7.38;2.65;;;;;;;;;;5099754;27;19977;-82
2023/10/31 04:28:21;;;;;;;6.38;2.60;;;;;;;;;;5100331;27;20047;-81
2023/10/31 04:30:47;;;;;;;8.18;2.83;;;;;;;;;;5110540;27;20196;-81
2023/10/31 04:33:13;;;;;;;;;;;;;;;;;;5101134;27;20046;-81
2023/10/31 04:35:39;;;;;;;5.18;2.28;;;;;;;;;;5117271;27;19942;-81
2023/10/31 04:38:06;;;;;;;4.80;2.30;;;;;;;;;;5116334;27;20035;-80
2023/10/31 04:40:31;;;;;;;;;;;;;;;;;;5132099;27;20047;-80
2023/10/31 04:42:57;;;;;;;5.63;2.72;;;;;;;;;;5118526;27;19942;-80
2023/10/31 04:45:23;;;;;;;5.40;2.15;;;;;;;;;;5137390;27;20073;-80
2023/10/31 04:47:50;;;;;;;6.28;2.75;;;;;;;;;;5119795;27;20042;-79
2023/10/31 04:50:16;;;;;;;6.10;2.53;;;;;;;;;;5137277;27;20050;-79
2023/10/31 04:52:42;;;;;;;12.35;2.60;;;;;;;;;;5102095;27;20070;-81
2023/10/31 04:55:08;;;;;;;;;;;;;;;;;;5103060;27;20039;-79
2023/10/31 04:57:34;;;;;;;10.10;3.20;;;;;;;;;;5119221;27;19919;-80
2023/10/31 05:00:00;;;;;;;;;;;;;;;;;;5137210;27;20043;-80
2023/10/31 05:02:26;;;;;;;11.00;3.05;;;;;;;;;;5136852;27;19926;-79
2023/10/31 05:04:52;;;;;;;;;;;;;;;;;;5119309;27;20043;-79
2023/10/31 05:07:18;;;;;;;8.32;3.40;;;;;;;;;;5136613;27;19968;-79
2023/10/31 05:09:44;;;;;;;9.00;3.30;;;;;;;;;;5119788;27;20436;-79
2023/10/31 05:12:11;;;;;;;7.57;3.30;;;;;;;;;;5136098;27;20046;-79
2023/10/31 05:14:36;;;;;;;;;;;;;;;;;;5136456;27;20506;-80
2023/10/31 05:17:03;;;;;;;7.57;2.70;;;;;;;;;;5136338;27;19919;-81
2023/10/31 05:19:29;;;;;;;;;;;;;;;;;;5120433;27;20046;-79
2023/10/31 05:21:55;;;;;;;11.10;2.55;;;;;;;;;;5127429;27;19946;-81
2023/10/31 05:24:21;;;;;;;;;;;;;;;;;;5123060;27;20066;-79
2023/10/31 05:26:47;;;;;;;9.00;3.05;;;;;;;;;;5098566;27;19926;-80
2023/10/31 05:29:13;;;;;;;7.85;3.55;;;;;;;;;;5115701;27;20208;-79
2023/10/31 05:31:39;;;;;;;8.70;3.17;;;;;;;;;;5116145;27;20039;-80
2023/10/31 05:34:05;;;;;;;9.52;3.50;;;;;;;;;;5112905;27;20516;-81
2023/10/31 05:36:31;;;;;;;9.52;3.92;;;;;;;;;;5119484;27;20049;-80
2023/10/31 05:38:57;;;;;;;11.88;4.38;;;;;;;;;;5118848;27;20039;-79
2023/10/31 05:41:23;;;;;;;8.63;4.20;;;;;;;;;;5101986;27;20111;-79
2023/10/31 05:43:49;;;;;;;;;;;;;;;;;;5119448;27;20133;-79
2023/10/31 05:46:15;;;;;;;14.30;4.00;;;;;;;;;;5118854;27;20385;-79
2023/10/31 05:48:41;;;;;;;;;;;;;;;;;;5133663;27;20043;-78
2023/10/31 05:51:17;;;;;;;14.43;3.40;;;;;;;;;;5118530;27;19918;-80
2023/10/31 05:53:44;;;;;;;9.65;4.22;;;;;;;;;;5116892;27;20045;-79
2023/10/31 05:56:11;;;;;;;13.75;4.80;;;;;;;;;;5114778;27;20579;-79
2023/10/31 05:58:38;;;;;;;13.48;4.35;;;;;;;;;;5115445;27;20043;-79
2023/10/31 06:01:04;;;;;;;10.88;3.63;;;;;;;;;;5098276;27;20103;-79
2023/10/31 06:03:31;;;;;;;11.75;3.60;;;;;;;;;;5081683;27;20047;-80
2023/10/31 06:05:57;;;;;;;;;;;;;;;;;;5104068;27;20031;-83
2023/10/31 06:08:24;;;;;;;9.90;3.33;;;;;;;;;;5135030;27;19926;-79
2023/10/31 06:10:50;;;;;;;10.20;2.88;;;;;;;;;;5115039;27;20039;-79
2023/10/31 06:13:17;;;;;;;8.90;3.10;;;;;;;;;;5114669;27;20111;-79
2023/10/31 06:15:44;;;;;;;13.07;3.80;;;;;;;;;;5115526;27;20043;-79
2023/10/31 06:18:10;;;;;;;16.90;4.10;;;;;;;;;;5114842;27;20535;-79
2023/10/31 06:20:36;;;;;;;8.88;3.30;;;;;;;;;;5115368;27;20051;-79
2023/10/31 06:23:03;;;;;;;13.32;3.80;;;;;;;;;;5115180;27;20051;-80
2023/10/31 06:25:29;;;;;;;9.55;3.45;;;;;;;;;;5135254;27;20061;-79
2023/10/31 06:27:55;;;;;;;9.68;3.30;;;;;;;;;;5135015;27;20399;-80
2023/10/31 06:30:21;;;;;;;9.68;4.00;;;;;;;;;;5115668;27;20074;-78
2023/10/31 06:32:47;;;;;;;;;;;;;;;;;;5118928;27;20042;-77
2023/10/31 06:35:14;;;;;;;10.20;3.30;;;;;;;;;;5101878;28;19969;-78
2023/10/31 06:37:40;;;;;;;;;;;;;;;;;;5117911;27;20433;-79
2023/10/31 06:40:06;;;;;;;11.57;3.30;;;;;;;;;;5117633;27;19923;-79
2023/10/31 06:42:32;;;;;;;9.05;3.55;;;;;;;;;;5117029;27;20055;-79
2023/10/31 06:44:58;;;;;;;;;;;;;;;;;;5101436;27;20043;-79
2023/10/31 06:47:24;;;;;;;11.35;4.10;;;;;;;;;;5126637;28;19919;-78
2023/10/31 06:49:50;;;;;;;;;;;;;;;;;;5119700;27;20054;-78
2023/10/31 06:52:16;;;;;;;12.70;4.20;;;;;;;;;;5132140;27;19919;-78
2023/10/31 06:54:42;;;;;;;11.50;4.25;;;;;;;;;;5135618;27;20046;-79
2023/10/31 06:57:08;;;;;;;13.68;4.60;;;;;;;;;;5135269;27;20046;-83
2023/10/31 06:59:35;;;;;;;11.20;4.13;;;;;;;;;;5102479;27;20046;-87
2023/10/31 07:02:01;;;;;;;10.25;4.22;;;;;;;;;;5135425;27;20039;-86
2023/10/31 07:04:27;;;;;;;12.50;4.18;;;;;;;;;;5132131;28;20217;-84
2023/10/31 07:06:57;;;;;;;9.88;3.72;;;;;;;;;;5115389;28;20063;-84
2023/10/31 07:09:23;;;;;;;9.63;3.45;;;;;;;;;;5097604;28;20072;-81
2023/10/31 07:11:49;;;;;;;11.88;3.63;;;;;;;;;;5131895;27;20058;-80
2023/10/31 07:14:15;;;;;;;;;;;;;;;;;;5122796;27;20051;-81
2023/10/31 07:16:43;;;;;;;11.80;3.70;;;;;;;;;;5114085;28;20324;-79
2023/10/31 07:19:10;;;;;;;11.15;3.60;;;;;;;;;;5097153;28;20484;-81
2023/10/31 07:21:36;;;;;;;10.20;3.83;;;;;;;;;;5097359;28;20066;-85
2023/10/31 07:24:02;;;;;;;10.90;4.25;;;;;;;;;;5114886;28;20176;-86
2023/10/31 07:26:28;;;;;;;8.93;3.78;;;;;;;;;;5080938;28;20058;-91
2023/10/31 07:28:55;;;;;;;11.75;4.53;;;;;;;;;;5098178;28;20047;-79
2023/10/31 07:31:20;;;;;;;;;;;;;;;;;;5081820;28;20055;-87
2023/10/31 07:33:46;;;;;;;8.65;4.25;;;;;;;;;;5105784;28;19928;-87
2023/10/31 07:36:13;;;;;;;9.68;4.18;;;;;;;;;;5098665;28;20106;-87
2023/10/31 07:38:39;;;;;;;9.57;4.40;;;;;;;;;;5101537;27;20081;-88
2023/10/31 07:41:05;;;;;;;;;;;;;;;;;;5102239;27;20054;-84
2023/10/31 07:43:31;;;;;;;13.10;4.18;;;;;;;;;;5135000;27;19923;-79
2023/10/31 07:45:57;;;;;;;12.43;4.75;;;;;;;;;;5134667;27;20092;-81
2023/10/31 07:48:23;;;;;;;13.25;4.43;;;;;;;;;;5134495;27;20078;-86
2023/10/31 07:50:49;;;;;;;7.53;4.13;;;;;;;;;;5100144;27;20042;-82
2023/10/31 07:53:15;;;;;;;10.32;4.13;;;;;;;;;;5117574;27;20043;-83
2023/10/31 07:55:41;;;;;;;7.53;4.13;;;;;;;;;;5126679;27;20034;-85
2023/10/31 07:58:09;;;;;;;9.30;3.70;;;;;;;;;;5142006;27;20043;-87
2023/10/31 08:00:35;;;;;;;10.73;4.35;;;;;;;;;;5142325;27;20503;-89
2023/10/31 08:03:02;;;;;;;10.18;3.65;;;;;;;;;;5114967;27;20137;-84
2023/10/31 08:05:27;;;;;;;;;;;;;;;;;;5083833;27;20049;-86
2023/10/31 08:07:54;;;;;;;8.30;3.60;;;;;;;;;;5100502;27;19920;-83
2023/10/31 08:10:19;;;;;;;;;;;;;;;;;;5099862;27;20042;-84
2023/10/31 08:12:46;;;;;;;9.02;3.50;;;;;;;;;;5137595;27;19967;-82
2023/10/31 08:15:13;;;;;;;;;;;;;;;;;;5122062;27;20051;-80
2023/10/31 08:17:39;;;;;;;10.13;4.40;;;;;;;;;;5119142;27;20018;-80
2023/10/31 08:20:05;;;;;;;11.95;3.92;;;;;;;;;;5100926;27;20047;-89
2023/10/31 08:22:31;;;;;;;9.10;4.22;;;;;;;;;;5099958;27;20537;-83
2023/10/31 08:24:57;;;;;;;7.43;3.88;;;;;;;;;;5100747;27;20078;-86
2023/10/31 08:27:24;;;;;;;7.15;3.50;;;;;;;;;;5100694;27;20047;-83
2023/10/31 08:29:50;;;;;;;16.27;4.80;;;;;;;;;;5118002;27;20049;-83
2023/10/31 08:32:16;;;;;;;;;;;;;;;;;;5118269;27;20051;-87
2023/10/31 08:34:42;;;;;;;6.85;3.33;;;;;;;;;;5117309;27;20419;-85
2023/10/31 08:37:08;;;;;;;9.40;3.80;;;;;;;;;;5118371;27;20040;-83
2023/10/31 08:39:34;;;;;;;8.13;3.95;;;;;;;;;;5099673;27;20101;-79
2023/10/31 08:42:00;;;;;;;10.75;3.53;;;;;;;;;;5099740;27;20062;-85
2023/10/31 08:44:26;;;;;;;;;;;;;;;;;;5117427;27;20051;-83
2023/10/31 08:46:52;;;;;;;6.35;2.63;;;;;;;;;;5111700;27;19968;-84
2023/10/31 08:49:19;;;;;;;;;;;;;;;;;;5117111;27;20675;-85
2023/10/31 08:51:45;;;;;;;7.60;3.20;;;;;;;;;;5123129;27;19926;-78
2023/10/31 08:54:11;;;;;;;7.35;2.42;;;;;;;;;;5137972;27;20058;-76
2023/10/31 08:56:37;;;;;;;9.30;2.70;;;;;;;;;;5137367;27;20050;-81
2023/10/31 08:59:04;;;;;;;;;;;;;;;;;;5121301;27;20134;-81
2023/10/31 09:01:30;;;;;;;8.18;1.80;;;;;;;;;;5137560;27;20390;-82
2023/10/31 09:03:58;;;;;;;;;;;;;;;;;;5138387;27;20121;-82
2023/10/31 09:06:24;;;;;;;4.43;1.65;;;;;;;;;;5137423;27;19962;-83
2023/10/31 09:08:50;;;;;;;;;;;;;;;;;;5138104;27;20043;-82
2023/10/31 09:11:16;;;;;;;4.53;1.45;;;;;;;;;;5137696;27;20005;-81
2023/10/31 09:13:42;;;;;;;5.20;1.55;;;;;;;;;;5133725;27;20035;-79
2023/10/31 09:16:09;;;;;;;5.13;1.17;;;;;;;;;;5134371;27;20081;-80
2023/10/31 09:18:36;;;;;;;4.22;1.33;;;;;;;;;;5099301;27;20047;-78
2023/10/31 09:21:02;;;;;;;4.80;1.45;;;;;;;;;;5116492;27;20510;-80
2023/10/31 09:23:29;;;;;;;;;;;;;;;;;;5136284;27;20055;-80
2023/10/31 09:25:56;;;;;;;3.05;0.80;;;;;;;;;;5126908;27;19923;-81
2023/10/31 09:28:22;;;;;;;4.00;1.20;;;;;;;;;;5136597;27;20504;-81
2023/10/31 09:30:49;;;;;;;;;;;;;;;;;;5137267;27;20068;-80
2023/10/31 09:33:16;;;;;;;4.25;0.88;;;;;;;;;;5155353;27;19923;-77
2023/10/31 09:35:42;;;;;;;;;;;;;;;;;;5136875;27;20043;-83
2023/10/31 09:38:08;;;;;;;6.60;0.90;;;;;;;;;;5119310;27;19926;-81
2023/10/31 09:40:34;;;;;;;;;;;;;;;;;;5137090;27;20429;-83
2023/10/31 09:43:00;;;;;;;1.35;0.70;;;;;;;;;;5136280;27;20425;-82
2023/10/31 09:45:27;;;;;;;3.10;0.60;;;;;;;;;;5114268;27;20047;-85
2023/10/31 09:47:53;;;;;;;;;;;;;;;;;;5099233;27;20051;-78
2023/10/31 09:50:19;;;;;;;4.50;0.77;;;;;;;;;;5098635;27;19948;-77
2023/10/31 09:52:45;;;;;;;;;;;;;;;;;;5114381;27;20504;-80
2023/10/31 09:55:11;;;;;;;2.58;0.88;;;;;;;;;;5132138;27;19925;-81
2023/10/31 09:57:38;;;;;;;6.95;0.90;;;;;;;;;;5134497;27;20112;-74
2023/10/31 10:00:04;;;;;;;4.93;0.80;;;;;;;;;;5118499;27;20122;-83
2023/10/31 10:02:30;;;;;;;3.92;0.82;;;;;;;;;;5102302;27;20043;-87
2023/10/31 10:04:56;;;;;;;;;;;;;;;;;;5136805;27;20070;-82
2023/10/31 10:07:22;;;;;;;3.08;0.60;;;;;;;;;;5136489;27;19957;-82
2023/10/31 10:09:48;;;;;;;7.50;0.95;;;;;;;;;;5121152;27;20042;-81
2023/10/31 10:12:15;;;;;;;3.13;0.73;;;;;;;;;;5130550;27;20047;-84
2023/10/31 10:14:41;;;;;;;4.80;0.70;;;;;;;;;;5084635;27;20365;-82
2023/10/31 10:17:37;;;;;;;2.38;0.60;;;;;;;;;;5119831;27;20133;-82
2023/10/31 10:20:10;;;;;;;3.40;0.80;;;;;;;;;;5115561;27;20046;-82
2023/10/31 10:22:37;;;;;;;3.20;0.65;;;;;;;;;;5136765;27;20122;-82
2023/10/31 10:25:05;;;;;;;4.35;0.80;;;;;;;;;;5102782;27;20134;-82
2023/10/31 10:27:31;;;;;;;3.03;0.70;;;;;;;;;;5135692;27;20102;-81
2023/10/31 10:29:57;;;;;;;1.90;0.65;;;;;;;;;;5138132;27;20050;-81
2023/10/31 10:32:23;;;;;;;;;;;;;;;;;;5118001;27;20535;-80
2023/10/31 10:34:49;;;;;;;2.13;0.80;;;;;;;;;;5098666;28;19919;-80
2023/10/31 10:37:17;;;;;;;2.78;0.63;;;;;;;;;;5098081;27;20130;-79
2023/10/31 10:39:49;;;;;;;2.33;0.60;;;;;;;;;;5098589;28;20050;-81
2023/10/31 10:42:18;;;;;;;4.93;1.20;;;;;;;;;;5097763;28;20066;-82
2023/10/31 10:44:47;;;;;;;3.20;0.63;;;;;;;;;;5111942;28;20396;-82
2023/10/31 10:47:13;;;;;;;7.55;0.90;;;;;;;;;;5115674;28;20051;-82
2023/10/31 10:49:42;;;;;;;1.70;0.60;;;;;;;;;;5115461;28;20091;-81
2023/10/31 10:52:20;;;;;;;3.90;0.50;;;;;;;;;;5115520;28;20725;-81
2023/10/31 10:54:53;;;;;;;1.65;0.52;;;;;;;;;;5115593;28;20051;-81
2023/10/31 10:57:38;;;;;;;2.10;0.50;;;;;;;;;;5112691;27;20047;-81
2023/10/31 11:00:08;;;;;;;0.85;0.40;;;;;;;;;;5135820;27;20050;-81
2023/10/31 11:02:35;;;;;;;1.52;0.40;;;;;;;;;;5135699;27;20103;-79
2023/10/31 11:05:02;;;;;;;0.55;0.30;;;;;;;;;;5118721;27;20047;-79
2023/10/31 11:07:30;;;;;;;1.27;0.50;;;;;;;;;;5118811;27;20129;-80
2023/10/31 11:09:58;;;;;;;1.40;0.90;;;;;;;;;;5132668;27;20084;-80
2023/10/31 11:12:24;;;;;;;0.93;0.55;;;;;;;;;;5136381;27;20035;-80
2023/10/31 11:14:50;;;;;;;3.80;0.80;;;;;;;;;;5122596;27;20070;-81
2023/10/31 11:17:28;;;;;;;2.78;0.88;;;;;;;;;;5136447;27;20392;-80
2023/10/31 11:19:55;;;;;;;5.30;0.90;;;;;;;;;;5122676;27;20051;-80
2023/10/31 11:22:21;;;;;;;2.22;0.80;;;;;;;;;;5121902;27;20039;-82
2023/10/31 11:24:49;;;;;;;2.50;0.68;;;;;;;;;;5105493;27;20050;-82
2023/10/31 11:27:15;;;;;;;2.90;0.90;;;;;;;;;;5136012;27;20515;-79
2023/10/31 11:29:41;;;;;;;;;;;;;;;;;;5105720;27;20391;-85
2023/10/31 11:32:11;;;;;;;4.15;0.90;;;;;;;;;;5118829;27;19923;-82
2023/10/31 11:34:41;;;;;;;3.28;0.93;;;;;;;;;;5121032;27;20150;-82
2023/10/31 11:37:20;;;;;;;8.18;1.20;;;;;;;;;;5131590;27;20054;-81
2023/10/31 11:40:04;;;;;;;3.67;0.90;;;;;;;;;;5108906;27;20050;-82
2023/10/31 11:42:33;;;;;;;3.03;0.60;;;;;;;;;;5124998;27;20047;-81
2023/10/31 11:45:00;;;;;;;6.80;0.98;;;;;;;;;;5111848;27;20069;-80
2023/10/31 11:47:26;;;;;;;3.40;0.90;;;;;;;;;;5138335;27;20103;-80
2023/10/31 11:49:52;;;;;;;;;;;;;;;;;;5106139;27;20134;-82
2023/10/31 11:52:19;;;;;;;5.10;0.90;;;;;;;;;;5115025;27;20415;-81
2023/10/31 11:54:45;;;;;;;3.88;0.70;;;;;;;;;;5126986;27;20043;-86
2023/10/31 11:57:11;;;;;;;1.67;0.57;;;;;;;;;;5138785;27;20482;-81
2023/10/31 11:59:37;;;;;;;;;;;;;;;;;;5139523;27;20043;-80
2023/10/31 12:02:13;;;;;;;4.38;1.00;;;;;;;;;;5106277;27;19919;-79
2023/10/31 12:04:39;;;;;;;2.65;0.80;;;;;;;;;;5134403;27;20486;-82
2023/10/31 12:07:05;;;;;;;5.68;0.90;;;;;;;;;;5124508;27;20051;-83
2023/10/31 12:09:31;;;;;;;;;;;;;;;;;;5118376;27;20039;-82
2023/10/31 12:11:57;;;;;;;4.88;1.05;;;;;;;;;;5120582;27;19967;-81
2023/10/31 12:14:24;;;;;;;5.60;0.77;;;;;;;;;;5118558;27;20051;-81
2023/10/31 12:16:50;;;;;;;6.05;0.88;;;;;;;;;;5118143;27;20043;-81
2023/10/31 12:19:16;;;;;;;1.50;0.80;;;;;;;;;;5118559;27;20214;-81
2023/10/31 12:21:42;;;;;;;3.95;0.75;;;;;;;;;;5134822;27;20035;-80
2023/10/31 12:24:13;;;;;;;3.15;0.80;;;;;;;;;;5120698;27;20039;-81
2023/10/31 12:26:39;;;;;;;2.72;0.65;;;;;;;;;;5118037;27;20369;-81
2023/10/31 12:29:09;;;;;;;0.95;0.47;;;;;;;;;;5117739;27;20130;-81
2023/10/31 12:31:36;;;;;;;2.70;1.10;;;;;;;;;;5101261;27;20635;-81
2023/10/31 12:34:02;;;;;;;;;;;;;;;;;;5100275;27;20043;-77
2023/10/31 12:36:28;;;;;;;4.90;0.82;;;;;;;;;;5108561;27;19920;-80
2023/10/31 12:38:54;;;;;;;3.40;0.45;;;;;;;;;;5121100;27;20043;-80
2023/10/31 12:41:20;;;;;;;;;;;;;;;;;;5104589;27;20117;-80
2023/10/31 12:43:46;;;;;;;0.75;0.32;;;;;;;;;;5120263;27;19919;-79
2023/10/31 12:46:12;;;;;;;;;;;;;;;;;;5127901;27;20095;-78
2023/10/31 12:48:41;;;;;;;2.03;0.50;;;;;;;;;;5138453;27;20354;-81
2023/10/31 12:51:08;;;;;;;1.17;0.50;;;;;;;;;;5120842;27;20368;-81
2023/10/31 12:53:34;;;;;;;1.38;0.30;;;;;;;;;;5114815;27;20042;-83
2023/10/31 12:56:00;;;;;;;;;;;;;;;;;;5138162;27;20539;-82
2023/10/31 12:58:26;;;;;;;0.80;0.40;;;;;;;;;;5136009;27;19973;-80
2023/10/31 13:00:54;;;;;;;;;;;;;;;;;;5121138;27;20046;-85
2023/10/31 13:03:20;;;;;;;1.23;0.47;;;;;;;;;;5120311;27;20390;-80
2023/10/31 13:05:46;;;;;;;4.25;0.80;;;;;;;;;;5120621;27;20129;-80
2023/10/31 13:08:12;;;;;;;;;;;;;;;;;;5120786;27;20061;-80
2023/10/31 13:10:39;;;;;;;3.58;0.60;;;;;;;;;;5137513;27;19919;-80
2023/10/31 13:13:05;;;;;;;2.67;0.50;;;;;;;;;;5120281;27;20134;-80
2023/10/31 13:15:32;;;;;;;;;;;;;;;;;;5121195;27;20047;-79
2023/10/31 13:17:58;;;;;;;2.28;0.60;;;;;;;;;;5136882;27;20018;-82
2023/10/31 13:20:24;;;;;;;2.33;0.60;;;;;;;;;;5099891;27;20494;-80
2023/10/31 13:22:50;;;;;;;;;;;;;;;;;;5116665;27;20043;-80
2023/10/31 13:25:17;;;;;;;3.10;0.63;;;;;;;;;;5110692;27;20424;-79
2023/10/31 13:27:44;;;;;;;2.38;0.65;;;;;;;;;;5136704;27;20091;-80
2023/10/31 13:30:13;;;;;;;3.28;0.70;;;;;;;;;;5119808;27;20050;-80
2023/10/31 13:32:43;;;;;;;2.85;0.60;;;;;;;;;;5103452;27;20050;-81
2023/10/31 13:35:09;;;;;;;3.17;0.60;;;;;;;;;;5136411;27;20489;-81
2023/10/31 13:37:35;;;;;;;0.98;0.40;;;;;;;;;;5137276;27;20399;-80
2023/10/31 13:40:02;;;;;;;2.45;0.75;;;;;;;;;;5119875;27;20047;-80
2023/10/31 13:42:28;;;;;;;0.95;0.43;;;;;;;;;;5122178;27;20407;-80
2023/10/31 13:44:54;;;;;;;;;;;;;;;;;;5137536;27;20043;-85
2023/10/31 13:47:20;;;;;;;0.88;0.45;;;;;;;;;;5136888;27;19926;-80
2023/10/31 13:49:47;;;;;;;3.33;0.50;;;;;;;;;;5137335;27;20091;-80
2023/10/31 13:52:13;;;;;;;2.90;0.65;;;;;;;;;;5119468;27;20042;-78
2023/10/31 13:54:39;;;;;;;;;;;;;;;;;;5137225;27;20121;-79
2023/10/31 13:57:05;;;;;;;2.47;0.80;;;;;;;;;;5136358;27;20011;-80
2023/10/31 13:59:31;;;;;;;3.40;1.27;;;;;;;;;;5119791;27;20042;-80
2023/10/31 14:01:57;;;;;;;;;;;;;;;;;;5103009;27;20133;-84
2023/10/31 14:04:23;;;;;;;2.80;0.60;;;;;;;;;;5133953;27;20005;-80
2023/10/31 14:06:49;;;;;;;;;;;;;;;;;;5119750;27;20391;-81
2023/10/31 14:09:15;;;;;;;3.92;0.85;;;;;;;;;;5136544;27;19929;-80
2023/10/31 14:11:42;;;;;;;2.65;0.68;;;;;;;;;;5119398;27;20043;-81
2023/10/31 14:14:10;;;;;;;3.20;0.90;;;;;;;;;;5136359;27;20051;-81
2023/10/31 14:16:41;;;;;;;3.65;0.80;;;;;;;;;;5111134;27;20058;-81
2023/10/31 14:19:07;;;;;;;2.60;0.68;;;;;;;;;;5115710;27;20039;-81
2023/10/31 14:21:34;;;;;;;1.60;0.70;;;;;;;;;;5098860;27;20047;-81
2023/10/31 14:24:00;;;;;;;2.47;0.77;;;;;;;;;;5101947;27;20046;-84
2023/10/31 14:26:27;;;;;;;2.03;0.60;;;;;;;;;;5135275;27;20054;-77
2023/10/31 14:28:53;;;;;;;3.53;0.85;;;;;;;;;;5131797;27;20039;-81
2023/10/31 14:31:22;;;;;;;2.25;0.80;;;;;;;;;;5109556;27;20103;-77
2023/10/31 14:33:49;;;;;;;3.88;0.63;;;;;;;;;;5121962;27;20046;-80
2023/10/31 14:36:15;;;;;;;1.17;0.50;;;;;;;;;;5131012;27;20050;-81
2023/10/31 14:38:41;;;;;;;0.90;0.40;;;;;;;;;;5124904;27;20039;-72
2023/10/31 14:41:08;;;;;;;2.85;0.60;;;;;;;;;;5148723;27;20049;-73
2023/10/31 14:43:34;;;;;;;4.82;0.95;;;;;;;;;;5153073;27;20057;-73
2023/10/31 14:46:00;;;;;;;3.85;0.85;;;;;;;;;;5153244;27;20039;-73
2023/10/31 14:48:26;;;;;;;2.67;1.08;;;;;;;;;;5158612;27;20691;-75
2023/10/31 14:50:52;;;;;;;1.20;0.60;;;;;;;;;;5138509;27;20043;-73
2023/10/31 14:53:19;;;;;;;1.33;0.50;;;;;;;;;;5147605;27;20096;-73
2023/10/31 14:55:45;;;;;;;2.00;0.50;;;;;;;;;;5148586;27;20455;-73
2023/10/31 14:58:11;;;;;;;1.88;0.70;;;;;;;;;;5102755;27;20438;-75